createdAt,value
2023-03-01T00:01:23.569Z,-0.50
2023-03-01T00:03:52.164Z,-0.50
2023-03-01T00:06:22.082Z,-0.50
2023-03-01T00:08:50.887Z,-0.50
2023-03-01T00:11:22.173Z,-0.50
2023-03-01T00:13:53.595Z,-0.50
2023-03-01T00:16:24.079Z,-0.50
2023-03-01T00:18:52.711Z,-0.50
2023-03-01T00:21:23.389Z,-0.50
2023-03-01T00:23:52.776Z,-0.50
2023-03-01T00:26:23.541Z,-0.50
2023-03-01T00:28:53.902Z,-0.60
2023-03-01T00:31:24.300Z,-0.60
2023-03-01T00:33:58.086Z,-0.60
2023-03-01T00:36:27.802Z,-0.60
2023-03-01T00:38:56.705Z,-0.60
2023-03-01T00:41:25.162Z,-0.70
2023-03-01T00:43:55.775Z,-0.70
2023-03-01T00:46:27.172Z,-0.70
2023-03-01T00:48:55.908Z,-0.80
2023-03-01T00:51:30.170Z,-0.80
2023-03-01T00:54:01.938Z,-0.90
2023-03-01T00:56:32.216Z,-1.00
2023-03-01T00:59:02.514Z,-1.00
2023-03-01T01:01:32.875Z,-1.00
2023-03-01T01:04:03.752Z,-1.10
2023-03-01T01:06:34.923Z,-1.10
2023-03-01T01:09:04.103Z,-1.10
2023-03-01T01:11:33.094Z,-1.10
2023-03-01T01:14:02.738Z,-1.10
2023-03-01T01:16:32.152Z,-1.10
2023-03-01T01:19:00.951Z,-1.10
2023-03-01T01:21:29.996Z,-1.10
2023-03-01T01:23:59.573Z,-1.10
2023-03-01T01:26:29.934Z,-1.20
2023-03-01T01:28:58.913Z,-1.20
2023-03-01T01:31:29.644Z,-1.20
2023-03-01T01:34:00.393Z,-1.30
2023-03-01T01:36:29.151Z,-1.30
2023-03-01T01:38:58.221Z,-1.30
2023-03-01T01:41:28.415Z,-1.30
2023-03-01T01:44:19.371Z,-1.20
2023-03-01T01:46:52.631Z,-1.20
2023-03-01T01:49:31.466Z,-1.30
2023-03-01T01:52:07.252Z,-1.30
2023-03-01T01:54:42.269Z,-1.30
2023-03-01T01:57:15.510Z,-1.30
2023-03-01T01:59:45.703Z,-1.40
2023-03-01T02:02:15.872Z,-1.40
2023-03-01T02:04:45.255Z,-1.50
2023-03-01T02:07:17.671Z,-1.40
2023-03-01T02:09:49.273Z,-1.50
2023-03-01T02:12:19.088Z,-1.50
2023-03-01T02:14:47.818Z,-1.60
2023-03-01T02:17:19.251Z,-1.60
2023-03-01T02:20:02.055Z,-1.70
2023-03-01T02:22:33.218Z,-1.70
2023-03-01T02:25:12.047Z,-1.70
2023-03-01T02:27:49.483Z,-1.70
2023-03-01T02:30:20.570Z,-1.70
2023-03-01T02:32:48.888Z,-1.70
2023-03-01T02:35:21.311Z,-1.60
2023-03-01T02:37:50.614Z,-1.70
2023-03-01T02:40:22.635Z,-1.70
2023-03-01T02:42:56.496Z,-1.70
2023-03-01T02:45:27.280Z,-1.70
2023-03-01T02:47:57.065Z,-1.70
2023-03-01T02:50:46.569Z,-1.70
2023-03-01T02:53:21.804Z,-1.80
2023-03-01T02:55:50.951Z,-1.80
2023-03-01T02:58:19.879Z,-1.80
2023-03-01T03:00:50.421Z,-1.90
2023-03-01T03:03:21.601Z,-1.90
2023-03-01T03:05:50.481Z,-1.90
2023-03-01T03:08:24.967Z,-1.90
2023-03-01T03:10:55.114Z,-1.90
2023-03-01T03:13:29.287Z,-1.90
2023-03-01T03:15:59.957Z,-2.00
2023-03-01T03:18:28.269Z,-2.00
2023-03-01T03:20:56.852Z,-2.00
2023-03-01T03:23:25.422Z,-2.00
2023-03-01T03:25:54.094Z,-2.00
2023-03-01T03:28:22.457Z,-2.00
2023-03-01T03:30:50.914Z,-2.00
2023-03-01T03:33:20.495Z,-2.10
2023-03-01T03:35:51.100Z,-2.10
2023-03-01T03:38:22.845Z,-2.20
2023-03-01T03:40:52.737Z,-2.20
2023-03-01T03:43:22.794Z,-2.20
2023-03-01T03:45:52.639Z,-2.20
2023-03-01T03:48:22.648Z,-2.20
2023-03-01T03:50:52.874Z,-2.20
2023-03-01T03:53:22.379Z,-2.20
2023-03-01T03:55:52.644Z,-2.20
2023-03-01T03:58:24.454Z,-2.30
2023-03-01T04:00:54.227Z,-2.30
2023-03-01T04:03:25.097Z,-2.30
2023-03-01T04:05:53.572Z,-2.30
2023-03-01T04:08:22.851Z,-2.30
2023-03-01T04:10:52.453Z,-2.30
2023-03-01T04:13:23.285Z,-2.30
2023-03-01T04:15:52.663Z,-2.30
2023-03-01T04:18:23.899Z,-2.20
2023-03-01T04:20:56.317Z,-2.20
2023-03-01T04:23:24.959Z,-2.20
2023-03-01T04:25:56.221Z,-2.20
2023-03-01T04:28:26.178Z,-2.20
2023-03-01T04:30:54.972Z,-2.30
2023-03-01T04:33:25.285Z,-2.30
2023-03-01T04:35:53.744Z,-2.40
2023-03-01T04:38:23.148Z,-2.40
2023-03-01T04:40:51.754Z,-2.50
2023-03-01T04:43:20.013Z,-2.40
2023-03-01T04:45:48.706Z,-2.40
2023-03-01T04:48:16.920Z,-2.40
2023-03-01T04:50:46.526Z,-2.40
2023-03-01T04:53:14.958Z,-2.40
2023-03-01T04:55:43.213Z,-2.40
2023-03-01T04:58:11.530Z,-2.40
2023-03-01T05:00:40.102Z,-2.50
2023-03-01T05:03:08.493Z,-2.50
2023-03-01T05:05:38.815Z,-2.60
2023-03-01T05:08:10.064Z,-2.60
2023-03-01T05:10:40.225Z,-2.60
2023-03-01T05:13:08.706Z,-2.60
2023-03-01T05:15:37.555Z,-2.70
2023-03-01T05:18:08.218Z,-2.70
2023-03-01T05:20:37.695Z,-2.70
2023-03-01T05:23:07.199Z,-2.70
2023-03-01T05:25:41.259Z,-2.70
2023-03-01T05:28:13.610Z,-2.80
2023-03-01T05:30:42.889Z,-2.80
2023-03-01T05:33:14.528Z,-2.80
2023-03-01T05:35:44.158Z,-2.80
2023-03-01T05:38:14.177Z,-2.90
2023-03-01T05:40:44.781Z,-2.90
2023-03-01T05:43:14.281Z,-2.90
2023-03-01T05:45:43.554Z,-2.90
2023-03-01T05:48:12.789Z,-2.90
2023-03-01T05:50:43.238Z,-2.80
2023-03-01T05:53:14.263Z,-2.80
2023-03-01T05:55:45.585Z,-2.80
2023-03-01T05:58:16.047Z,-2.80
2023-03-01T06:00:46.107Z,-2.80
2023-03-01T06:03:15.714Z,-2.80
2023-03-01T06:05:44.773Z,-2.80
2023-03-01T06:08:13.673Z,-2.80
2023-03-01T06:10:43.770Z,-2.80
2023-03-01T06:13:11.992Z,-2.80
2023-03-01T06:15:40.647Z,-2.80
2023-03-01T06:18:08.935Z,-2.80
2023-03-01T06:20:37.181Z,-2.80
2023-03-01T06:23:05.466Z,-2.80
2023-03-01T06:25:33.723Z,-2.80
2023-03-01T06:28:03.363Z,-2.70
2023-03-01T06:30:31.636Z,-2.70
2023-03-01T06:33:02.321Z,-2.70
2023-03-01T06:35:32.283Z,-2.60
2023-03-01T06:38:02.280Z,-2.60
2023-03-01T06:40:32.566Z,-2.60
2023-03-01T06:43:02.618Z,-2.50
2023-03-01T06:45:30.838Z,-2.50
2023-03-01T06:48:06.389Z,-2.40
2023-03-01T06:50:35.214Z,-2.30
2023-03-01T06:53:04.433Z,-2.20
2023-03-01T06:55:33.045Z,-2.10
2023-03-01T06:58:03.746Z,-2.00
2023-03-01T07:00:32.357Z,-1.90
2023-03-01T07:03:03.064Z,-1.80
2023-03-01T07:05:31.640Z,-1.60
2023-03-01T07:08:00.028Z,-1.50
2023-03-01T07:10:28.385Z,-1.30
2023-03-01T07:12:58.104Z,-1.20
2023-03-01T07:15:28.805Z,-1.10
2023-03-01T07:17:58.400Z,-0.80
2023-03-01T07:20:26.847Z,-0.40
2023-03-01T07:22:56.686Z,0.10
2023-03-01T07:25:24.938Z,0.50
2023-03-01T07:27:54.208Z,0.90
2023-03-01T07:30:23.026Z,1.20
2023-03-01T07:32:55.416Z,1.40
2023-03-01T07:35:24.048Z,1.50
2023-03-01T07:37:52.342Z,1.80
2023-03-01T07:40:21.319Z,2.00
2023-03-01T07:42:49.958Z,2.10
2023-03-01T07:45:18.338Z,2.20
2023-03-01T07:47:46.538Z,2.60
2023-03-01T07:50:16.453Z,2.70
2023-03-01T07:52:47.254Z,2.80
2023-03-01T07:55:16.143Z,3.00
2023-03-01T07:57:44.702Z,3.30
2023-03-01T08:00:14.409Z,3.50
2023-03-01T08:02:43.116Z,3.70
2023-03-01T08:05:11.940Z,4.20
2023-03-01T08:07:41.567Z,4.70
2023-03-01T08:10:11.030Z,5.20
2023-03-01T08:12:39.265Z,5.60
2023-03-01T08:15:08.628Z,5.80
2023-03-01T08:17:36.931Z,6.10
2023-03-01T08:20:07.394Z,6.30
2023-03-01T08:22:35.928Z,6.30
2023-03-01T08:25:06.074Z,6.50
2023-03-01T08:27:34.301Z,6.50
2023-03-01T08:30:02.517Z,6.10
2023-03-01T08:32:31.178Z,5.90
2023-03-01T08:34:59.581Z,5.80
2023-03-01T08:37:28.828Z,5.70
2023-03-01T08:39:57.193Z,5.80
2023-03-01T08:42:26.864Z,6.20
2023-03-01T08:44:55.132Z,6.60
2023-03-01T08:47:23.721Z,6.90
2023-03-01T08:49:52.522Z,6.80
2023-03-01T08:52:21.799Z,6.70
2023-03-01T08:54:50.068Z,6.80
2023-03-01T08:57:18.380Z,6.90
2023-03-01T08:59:47.990Z,7.10
2023-03-01T09:02:18.675Z,7.20
2023-03-01T09:04:47.099Z,7.30
2023-03-01T09:07:15.318Z,7.20
2023-03-01T09:09:43.573Z,6.90
2023-03-01T09:12:12.276Z,6.90
2023-03-01T09:14:42.152Z,6.90
2023-03-01T09:17:12.589Z,7.30
2023-03-01T09:19:40.881Z,7.30
2023-03-01T09:22:09.991Z,7.50
2023-03-01T09:24:38.195Z,7.70
2023-03-01T09:27:09.872Z,7.60
2023-03-01T09:29:41.091Z,7.20
2023-03-01T09:32:10.354Z,6.90
2023-03-01T09:34:53.854Z,6.70
2023-03-01T09:37:22.420Z,6.50
2023-03-01T09:39:50.687Z,6.30
2023-03-01T09:42:19.376Z,6.50
2023-03-01T09:44:53.632Z,6.70
2023-03-01T09:47:25.870Z,6.80
2023-03-01T09:50:04.204Z,7.20
2023-03-01T09:52:40.053Z,7.20
2023-03-01T09:55:14.062Z,7.30
2023-03-01T09:57:49.978Z,7.50
2023-03-01T10:00:39.521Z,7.50
2023-03-01T10:03:18.738Z,7.20
2023-03-01T10:05:55.123Z,7.10
2023-03-01T10:08:42.624Z,7.00
2023-03-01T10:11:24.603Z,6.90
2023-03-01T10:14:00.926Z,7.10
2023-03-01T10:16:36.557Z,7.20
2023-03-01T10:19:07.585Z,7.20
2023-03-01T10:21:45.035Z,7.80
2023-03-01T10:24:16.306Z,7.80
2023-03-01T10:26:52.305Z,7.90
2023-03-01T10:29:26.578Z,8.30
2023-03-01T10:31:55.955Z,8.60
2023-03-01T10:34:29.787Z,8.70
2023-03-01T10:37:03.529Z,9.10
2023-03-01T10:39:34.004Z,9.60
2023-03-01T10:42:05.655Z,9.10
2023-03-01T10:44:46.755Z,8.70
2023-03-01T10:47:22.350Z,8.40
2023-03-01T10:50:00.038Z,8.40
2023-03-01T10:52:33.829Z,8.40
2023-03-01T10:55:06.729Z,8.50
2023-03-01T10:57:42.868Z,8.90
2023-03-01T11:00:32.920Z,9.20
2023-03-01T11:03:12.970Z,9.20
2023-03-01T11:06:01.056Z,9.40
2023-03-01T11:08:43.134Z,9.30
2023-03-01T11:11:33.823Z,9.30
2023-03-01T11:14:23.573Z,8.90
2023-03-01T11:17:03.360Z,9.10
2023-03-01T11:19:32.364Z,9.30
2023-03-01T11:22:05.556Z,8.90
2023-03-01T11:24:43.391Z,8.80
2023-03-01T11:27:21.860Z,9.10
2023-03-01T11:29:56.037Z,9.00
2023-03-01T11:32:29.098Z,8.50
2023-03-01T11:35:00.226Z,8.60
2023-03-01T11:37:43.333Z,8.60
2023-03-01T11:40:23.459Z,8.20
2023-03-01T11:43:02.267Z,8.20
2023-03-01T11:45:41.010Z,8.40
2023-03-01T11:48:27.426Z,8.30
2023-03-01T11:51:00.023Z,8.20
2023-03-01T11:53:44.621Z,8.00
2023-03-01T11:56:26.520Z,8.10
2023-03-01T11:59:33.666Z,8.00
2023-03-01T12:02:31.198Z,8.10
2023-03-01T12:05:23.016Z,8.20
2023-03-01T12:07:58.496Z,8.30
2023-03-01T12:10:31.006Z,8.40
2023-03-01T12:13:25.707Z,8.50
2023-03-01T12:16:25.913Z,8.70
2023-03-01T12:19:12.949Z,8.60
2023-03-01T12:21:55.719Z,8.50
2023-03-01T12:24:53.722Z,8.50
2023-03-01T12:27:40.663Z,8.40
2023-03-01T12:30:25.863Z,8.30
2023-03-01T12:33:05.341Z,8.30
2023-03-01T12:35:51.775Z,8.30
2023-03-01T12:38:36.170Z,8.30
2023-03-01T12:41:31.375Z,8.60
2023-03-01T12:44:13.107Z,9.00
2023-03-01T12:46:58.546Z,8.90
2023-03-01T12:49:32.305Z,9.20
2023-03-01T12:52:03.876Z,9.10
2023-03-01T12:54:34.778Z,9.10
2023-03-01T12:57:11.673Z,9.30
2023-03-01T12:59:45.034Z,9.50
2023-03-01T13:02:25.227Z,9.70
2023-03-01T13:05:08.440Z,9.90
2023-03-01T13:07:41.240Z,9.50
2023-03-01T13:10:25.365Z,9.70
2023-03-01T13:13:04.160Z,9.60
2023-03-01T13:15:35.140Z,9.60
2023-03-01T13:18:06.765Z,9.60
2023-03-01T13:20:49.133Z,9.70
2023-03-01T13:23:28.026Z,9.30
2023-03-01T13:26:13.196Z,9.10
2023-03-01T13:28:56.953Z,9.20
2023-03-01T13:32:02.676Z,9.40
2023-03-01T13:34:48.944Z,9.30
2023-03-01T13:37:30.232Z,9.40
2023-03-01T13:40:04.861Z,9.10
2023-03-01T13:43:04.627Z,8.80
2023-03-01T13:45:40.901Z,8.90
2023-03-01T13:48:13.962Z,9.20
2023-03-01T13:50:51.029Z,9.40
2023-03-01T13:53:21.642Z,9.40
2023-03-01T13:55:53.046Z,9.40
2023-03-01T13:58:26.144Z,9.20
2023-03-01T14:00:59.558Z,9.10
2023-03-01T14:03:28.665Z,9.10
2023-03-01T14:06:15.295Z,9.10
2023-03-01T14:08:45.762Z,8.90
2023-03-01T14:11:39.982Z,9.00
2023-03-01T14:14:40.021Z,9.20
2023-03-01T14:17:27.162Z,9.50
2023-03-01T14:19:59.490Z,9.90
2023-03-01T14:22:32.113Z,9.60
2023-03-01T14:25:01.862Z,9.30
2023-03-01T14:27:32.618Z,9.30
2023-03-01T14:30:05.948Z,9.20
2023-03-01T14:32:34.763Z,9.30
2023-03-01T14:35:03.418Z,9.40
2023-03-01T14:37:35.299Z,9.30
2023-03-01T14:40:24.007Z,9.10
2023-03-01T14:42:53.370Z,9.30
2023-03-01T14:45:22.038Z,9.50
2023-03-01T14:47:50.563Z,9.60
2023-03-01T14:50:25.586Z,9.50
2023-03-01T14:52:58.134Z,9.30
2023-03-01T14:55:31.954Z,9.40
2023-03-01T14:58:03.429Z,9.30
2023-03-01T15:00:33.773Z,9.30
2023-03-01T15:03:11.133Z,9.20
2023-03-01T15:05:39.509Z,9.20
2023-03-01T15:08:09.801Z,8.70
2023-03-01T15:10:40.653Z,8.30
2023-03-01T15:13:23.000Z,8.10
2023-03-01T15:15:52.950Z,7.80
2023-03-01T15:18:25.078Z,7.60
2023-03-01T15:20:53.910Z,7.50
2023-03-01T15:23:29.895Z,7.40
2023-03-01T15:25:59.823Z,7.20
2023-03-01T15:28:30.712Z,7.10
2023-03-01T15:31:02.196Z,7.00
2023-03-01T15:33:39.669Z,6.80
2023-03-01T15:36:33.075Z,6.60
2023-03-01T15:39:03.592Z,6.50
2023-03-01T15:41:34.110Z,6.40
2023-03-01T15:44:16.185Z,6.40
2023-03-01T15:46:48.780Z,6.30
2023-03-01T15:49:36.489Z,6.20
2023-03-01T15:52:05.785Z,6.20
2023-03-01T15:54:35.941Z,6.10
2023-03-01T15:57:04.116Z,6.10
2023-03-01T15:59:33.052Z,6.10
2023-03-01T16:02:01.214Z,6.00
2023-03-01T16:04:30.227Z,6.00
2023-03-01T16:06:58.490Z,5.90
2023-03-01T16:09:28.341Z,5.90
2023-03-01T16:11:58.258Z,5.80
2023-03-01T16:14:26.685Z,5.80
2023-03-01T16:16:55.511Z,5.70
2023-03-01T16:19:23.968Z,5.70
2023-03-01T16:21:52.548Z,5.60
2023-03-01T16:24:21.569Z,5.60
2023-03-01T16:26:50.131Z,5.50
2023-03-01T16:29:20.032Z,5.60
2023-03-01T16:31:49.037Z,5.60
2023-03-01T16:34:17.886Z,5.70
2023-03-01T16:36:48.464Z,5.60
2023-03-01T16:39:18.525Z,5.50
2023-03-01T16:41:46.795Z,5.40
2023-03-01T16:44:15.020Z,5.30
2023-03-01T16:46:45.093Z,5.20
2023-03-01T16:49:13.356Z,5.20
2023-03-01T16:51:41.680Z,5.10
2023-03-01T16:54:11.160Z,5.00
2023-03-01T16:56:40.693Z,5.00
2023-03-01T16:59:09.146Z,4.90
2023-03-01T17:01:42.115Z,4.80
2023-03-01T17:04:16.179Z,4.70
2023-03-01T17:06:46.203Z,4.70
2023-03-01T17:09:14.761Z,4.70
2023-03-01T17:11:43.395Z,4.70
2023-03-01T17:14:11.909Z,4.60
2023-03-01T17:16:40.802Z,4.50
2023-03-01T17:19:09.319Z,4.50
2023-03-01T17:21:39.676Z,4.40
2023-03-01T17:24:08.337Z,4.40
2023-03-01T17:26:36.630Z,4.40
2023-03-01T17:29:05.640Z,4.30
2023-03-01T17:31:35.815Z,4.20
2023-03-01T17:34:04.494Z,4.20
2023-03-01T17:36:34.594Z,4.20
2023-03-01T17:39:04.572Z,4.00
2023-03-01T17:41:33.295Z,4.00
2023-03-01T17:44:02.029Z,3.90
2023-03-01T17:46:30.411Z,3.90
2023-03-01T17:48:59.087Z,3.80
2023-03-01T17:51:27.684Z,3.70
2023-03-01T17:53:56.422Z,3.70
2023-03-01T17:56:26.091Z,3.80
2023-03-01T17:58:54.840Z,3.70
2023-03-01T18:01:23.732Z,3.70
2023-03-01T18:03:52.970Z,3.70
2023-03-01T18:06:22.936Z,3.70
2023-03-01T18:08:52.373Z,3.70
2023-03-01T18:11:21.563Z,3.80
2023-03-01T18:13:51.853Z,3.70
2023-03-01T18:16:22.193Z,3.60
2023-03-01T18:18:55.019Z,3.50
2023-03-01T18:21:23.900Z,3.50
2023-03-01T18:23:52.560Z,3.50
2023-03-01T18:26:22.560Z,3.40
2023-03-01T18:28:54.397Z,3.30
2023-03-01T18:31:24.027Z,3.30
2023-03-01T18:33:55.117Z,3.20
2023-03-01T18:36:25.526Z,3.10
2023-03-01T18:38:56.313Z,3.10
2023-03-01T18:41:26.433Z,3.00
2023-03-01T18:43:57.576Z,2.90
2023-03-01T18:46:26.453Z,2.90
2023-03-01T18:48:55.920Z,2.90
2023-03-01T18:51:30.444Z,2.90
2023-03-01T18:53:59.727Z,2.90
2023-03-01T18:56:32.137Z,2.90
2023-03-01T18:59:04.256Z,2.90
2023-03-01T19:01:36.826Z,2.90
2023-03-01T19:04:06.483Z,3.10
2023-03-01T19:06:35.636Z,3.10
2023-03-01T19:09:04.708Z,3.00
2023-03-01T19:11:34.103Z,3.00
2023-03-01T19:14:05.271Z,2.90
2023-03-01T19:16:35.837Z,2.90
2023-03-01T19:19:08.510Z,2.80
2023-03-01T19:21:37.361Z,2.80
2023-03-01T19:24:07.429Z,2.80
2023-03-01T19:26:36.340Z,2.80
2023-03-01T19:29:06.671Z,2.80
2023-03-01T19:31:35.495Z,2.70
2023-03-01T19:34:12.581Z,2.70
2023-03-01T19:36:42.937Z,2.60
2023-03-01T19:39:13.622Z,2.60
2023-03-01T19:41:42.811Z,2.60
2023-03-01T19:44:12.947Z,2.60
2023-03-01T19:46:41.356Z,2.50
2023-03-01T19:49:10.140Z,2.50
2023-03-01T19:51:39.516Z,2.50
2023-03-01T19:54:09.836Z,2.50
2023-03-01T19:56:38.797Z,2.50
2023-03-01T19:59:07.681Z,2.50
2023-03-01T20:01:37.784Z,2.40
2023-03-01T20:04:06.883Z,2.40
2023-03-01T20:06:35.500Z,2.40
2023-03-01T20:09:19.127Z,2.40
2023-03-01T20:11:48.853Z,2.40
2023-03-01T20:14:17.654Z,2.30
2023-03-01T20:16:47.315Z,2.30
2023-03-01T20:19:16.251Z,2.20
2023-03-01T20:21:44.576Z,2.20
2023-03-01T20:24:13.921Z,2.20
2023-03-01T20:26:42.150Z,2.20
2023-03-01T20:29:10.914Z,2.20
2023-03-01T20:31:41.704Z,2.10
2023-03-01T20:34:11.706Z,2.10
2023-03-01T20:36:41.166Z,2.10
2023-03-01T20:39:11.800Z,2.10
2023-03-01T20:41:40.191Z,2.10
2023-03-01T20:44:09.546Z,2.10
2023-03-01T20:46:38.653Z,2.00
2023-03-01T20:49:07.642Z,2.00
2023-03-01T20:51:37.702Z,2.00
2023-03-01T20:54:06.493Z,1.90
2023-03-01T20:56:35.445Z,1.90
2023-03-01T20:59:04.942Z,1.90
2023-03-01T21:01:33.909Z,1.90
2023-03-01T21:04:02.663Z,1.90
2023-03-01T21:06:31.870Z,1.90
2023-03-01T21:09:01.867Z,1.90
2023-03-01T21:11:30.098Z,1.90
2023-03-01T21:13:59.362Z,1.80
2023-03-01T21:16:27.844Z,1.80
2023-03-01T21:18:56.183Z,1.80
2023-03-01T21:21:25.558Z,1.70
2023-03-01T21:23:55.384Z,1.70
2023-03-01T21:26:26.887Z,1.70
2023-03-01T21:28:57.809Z,1.60
2023-03-01T21:31:29.008Z,1.60
2023-03-01T21:33:59.188Z,1.50
2023-03-01T21:36:30.399Z,1.50
2023-03-01T21:39:01.875Z,1.60
2023-03-01T21:41:33.744Z,1.60
2023-03-01T21:44:03.307Z,1.60
2023-03-01T21:46:34.801Z,1.60
2023-03-01T21:49:04.758Z,1.60
2023-03-01T21:51:34.267Z,1.60
2023-03-01T21:54:02.856Z,1.60
2023-03-01T21:56:35.544Z,1.60
2023-03-01T21:59:04.098Z,1.60
2023-03-01T22:01:32.959Z,1.50
2023-03-01T22:04:03.643Z,1.50
2023-03-01T22:06:35.262Z,1.50
2023-03-01T22:09:07.961Z,1.50
2023-03-01T22:11:39.512Z,1.40
2023-03-01T22:14:08.853Z,1.40
2023-03-01T22:16:38.857Z,1.40
2023-03-01T22:19:07.937Z,1.40
2023-03-01T22:21:36.719Z,1.30
2023-03-01T22:24:05.287Z,1.30
2023-03-01T22:26:36.247Z,1.20
2023-03-01T22:29:08.193Z,1.20
2023-03-01T22:31:37.203Z,1.20
2023-03-01T22:34:05.869Z,1.10
2023-03-01T22:36:35.075Z,1.10
2023-03-01T22:39:04.402Z,1.00
2023-03-01T22:41:34.767Z,0.90
2023-03-01T22:44:03.291Z,0.80
2023-03-01T22:46:33.252Z,0.70
2023-03-01T22:49:01.995Z,0.70
2023-03-01T22:51:32.455Z,0.70
2023-03-01T22:54:01.110Z,0.70
2023-03-01T22:56:31.888Z,0.60
2023-03-01T22:59:02.491Z,0.60
2023-03-01T23:01:33.052Z,0.60
2023-03-01T23:04:02.405Z,0.60
2023-03-01T23:06:31.560Z,0.50
2023-03-01T23:09:03.188Z,0.50
2023-03-01T23:11:31.645Z,0.50
2023-03-01T23:14:00.182Z,0.50
2023-03-01T23:16:29.015Z,0.50
2023-03-01T23:18:59.391Z,0.40
2023-03-01T23:21:28.188Z,0.40
2023-03-01T23:23:57.279Z,0.40
2023-03-01T23:26:27.442Z,0.40
2023-03-01T23:28:56.681Z,0.30
2023-03-01T23:31:30.352Z,0.30
2023-03-01T23:34:00.355Z,0.30
2023-03-01T23:36:31.635Z,0.20
2023-03-01T23:39:02.133Z,0.30
2023-03-01T23:41:33.051Z,0.30
2023-03-01T23:44:02.703Z,0.30
2023-03-01T23:46:33.943Z,0.20
2023-03-01T23:49:04.686Z,0.20
2023-03-01T23:51:33.284Z,0.20
2023-03-01T23:54:05.391Z,0.20
2023-03-01T23:56:35.966Z,0.10
2023-03-01T23:59:06.491Z,0.10
